createdAt,value
2018-09-02T00:00:25.217Z,100680.41
2018-09-02T00:02:54.194Z,100675.53
2018-09-02T00:05:23.211Z,100680.76
2018-09-02T00:07:52.301Z,100682.91
2018-09-02T00:10:21.324Z,100683.26
2018-09-02T00:12:50.375Z,100683.38
2018-09-02T00:15:19.373Z,100688.47
2018-09-02T00:17:56.915Z,100691.58
2018-09-02T00:20:25.972Z,100686.80
2018-09-02T00:22:54.898Z,100692.87
2018-09-02T00:25:24.445Z,100687.87
2018-09-02T00:27:53.433Z,100686.81
2018-09-02T00:30:22.520Z,100683.23
2018-09-02T00:32:51.845Z,100683.38
2018-09-02T00:35:20.865Z,100680.40
2018-09-02T00:37:49.956Z,100675.98
2018-09-02T00:40:19.077Z,100668.25
2018-09-02T00:42:48.070Z,100663.00
2018-09-02T00:45:17.095Z,100655.38
2018-09-02T00:47:46.088Z,100656.11
2018-09-02T00:50:15.107Z,100654.09
2018-09-02T00:52:44.127Z,100654.90
2018-09-02T00:55:13.125Z,100654.41
2018-09-02T00:57:42.184Z,100652.52
2018-09-02T01:00:11.187Z,100652.73
2018-09-02T01:02:40.295Z,100657.00
2018-09-02T01:05:09.323Z,100654.75
2018-09-02T01:07:38.327Z,100656.05
2018-09-02T01:10:07.369Z,100650.39
2018-09-02T01:12:36.364Z,100653.09
2018-09-02T01:15:05.370Z,100645.84
2018-09-02T01:17:34.383Z,100651.75
2018-09-02T01:20:03.415Z,100648.03
2018-09-02T01:22:32.517Z,100648.39
2018-09-02T01:25:01.480Z,100642.68
2018-09-02T01:27:30.516Z,100640.50
2018-09-02T01:29:59.516Z,100637.07
2018-09-02T01:32:28.534Z,100628.59
2018-09-02T01:34:57.549Z,100627.28
2018-09-02T01:37:26.591Z,100624.30
2018-09-02T01:39:55.682Z,100626.29
2018-09-02T01:42:24.691Z,100633.16
2018-09-02T01:44:53.754Z,100627.34
2018-09-02T01:47:22.771Z,100623.63
2018-09-02T01:49:52.079Z,100623.63
2018-09-02T01:52:21.084Z,100622.41
2018-09-02T01:54:50.160Z,100619.53
2018-09-02T01:57:19.182Z,100615.80
2018-09-02T01:59:48.275Z,100617.17
2018-09-02T02:02:17.307Z,100613.02
2018-09-02T02:04:46.334Z,100620.47
2018-09-02T02:07:15.323Z,100614.05
2018-09-02T02:09:44.340Z,100609.63
2018-09-02T02:12:13.356Z,100613.41
2018-09-02T02:14:42.409Z,100610.55
2018-09-02T02:17:12.031Z,100606.77
2018-09-02T02:19:41.075Z,100604.09
2018-09-02T02:22:10.090Z,100601.82
2018-09-02T02:24:39.145Z,100601.31
2018-09-02T02:27:08.251Z,100602.39
2018-09-02T02:29:37.542Z,100599.79
2018-09-02T02:32:06.543Z,100590.88
2018-09-02T02:34:35.896Z,100583.63
2018-09-02T02:37:05.020Z,100589.05
2018-09-02T02:39:34.024Z,100586.88
2018-09-02T02:42:03.172Z,100588.61
2018-09-02T02:44:32.199Z,100591.62
2018-09-02T02:47:01.291Z,100590.56
2018-09-02T02:49:30.305Z,100572.55
2018-09-02T02:51:59.304Z,100573.63
2018-09-02T02:54:28.399Z,100585.47
2018-09-02T02:56:57.438Z,100571.48
2018-09-02T02:59:26.444Z,100575.89
2018-09-02T03:01:55.469Z,100576.16
2018-09-02T03:04:24.509Z,100577.77
2018-09-02T03:06:53.551Z,100575.45
2018-09-02T03:09:22.549Z,100568.06
2018-09-02T03:11:51.546Z,100572.12
2018-09-02T03:14:20.582Z,100575.31
2018-09-02T03:16:49.582Z,100565.27
2018-09-02T03:19:18.718Z,100576.59
2018-09-02T03:21:47.719Z,100577.98
2018-09-02T03:24:16.728Z,100569.75
2018-09-02T03:26:45.759Z,100560.88
2018-09-02T03:29:14.758Z,100567.31
2018-09-02T03:31:43.838Z,100574.11
2018-09-02T03:34:12.844Z,100575.21
2018-09-02T03:36:41.889Z,100565.19
2018-09-02T03:39:11.266Z,100563.20
2018-09-02T03:41:40.286Z,100552.16
2018-09-02T03:44:09.311Z,100561.52
2018-09-02T03:46:38.327Z,100561.45
2018-09-02T03:49:07.351Z,100560.79
2018-09-02T03:51:36.364Z,100555.22
2018-09-02T03:54:06.123Z,100555.43
2018-09-02T03:56:35.563Z,100558.80
2018-09-02T03:59:04.586Z,100553.81
2018-09-02T04:01:33.629Z,100559.44
2018-09-02T04:04:02.859Z,100568.04
2018-09-02T04:06:31.916Z,100559.94
2018-09-02T04:09:00.981Z,100561.16
2018-09-02T04:11:30.069Z,100566.20
2018-09-02T04:13:58.995Z,100560.33
2018-09-02T04:16:28.015Z,100568.97
2018-09-02T04:18:57.051Z,100567.23
2018-09-02T04:21:26.064Z,100567.27
2018-09-02T04:23:55.096Z,100561.57
2018-09-02T04:26:24.095Z,100553.85
2018-09-02T04:28:53.470Z,100557.06
2018-09-02T04:31:22.728Z,100556.95
2018-09-02T04:33:51.768Z,100555.02
2018-09-02T04:36:20.764Z,100555.48
2018-09-02T04:38:49.770Z,100547.78
2018-09-02T04:41:18.788Z,100546.11
2018-09-02T04:43:47.959Z,100546.36
2018-09-02T04:46:16.959Z,100546.98
2018-09-02T04:48:45.972Z,100548.18
2018-09-02T04:51:15.923Z,100553.89
2018-09-02T04:53:45.029Z,100545.89
2018-09-02T04:56:14.033Z,100544.54
2018-09-02T04:58:43.083Z,100542.06
2018-09-02T05:01:12.080Z,100536.61
2018-09-02T05:03:41.089Z,100536.46
2018-09-02T05:06:10.114Z,100535.52
2018-09-02T05:08:39.263Z,100538.49
2018-09-02T05:11:08.319Z,100535.83
2018-09-02T05:13:37.331Z,100535.47
2018-09-02T05:16:06.340Z,100528.13
2018-09-02T05:18:35.352Z,100530.31
2018-09-02T05:21:04.382Z,100530.39
2018-09-02T05:23:33.418Z,100534.58
2018-09-02T05:26:02.450Z,100533.47
2018-09-02T05:28:31.486Z,100533.37
2018-09-02T05:31:00.585Z,100528.81
2018-09-02T05:33:29.954Z,100527.50
2018-09-02T05:35:58.964Z,100530.85
2018-09-02T05:38:27.971Z,100525.88
2018-09-02T05:40:56.980Z,100527.88
2018-09-02T05:43:26.032Z,100537.77
2018-09-02T05:45:55.031Z,100533.73
2018-09-02T05:48:24.072Z,100531.91
2018-09-02T05:50:53.067Z,100535.22
2018-09-02T05:53:22.064Z,100535.78
2018-09-02T05:55:51.107Z,100540.50
2018-09-02T05:58:20.135Z,100541.20
2018-09-02T06:00:49.207Z,100534.27
2018-09-02T06:03:18.304Z,100535.79
2018-09-02T06:05:47.422Z,100541.39
2018-09-02T06:08:16.468Z,100541.20
2018-09-02T06:10:45.492Z,100541.55
2018-09-02T06:13:14.532Z,100539.50
2018-09-02T06:15:43.646Z,100544.46
2018-09-02T06:18:12.652Z,100544.73
2018-09-02T06:20:41.685Z,100541.93
2018-09-02T06:23:10.779Z,100531.89
2018-09-02T06:25:39.792Z,100541.49
2018-09-02T06:28:08.815Z,100543.30
2018-09-02T06:30:37.827Z,100549.50
2018-09-02T06:33:06.855Z,100539.66
2018-09-02T06:35:35.859Z,100537.80
2018-09-02T06:38:04.837Z,100537.20
2018-09-02T06:40:33.859Z,100536.23
2018-09-02T06:43:02.876Z,100530.75
2018-09-02T06:45:31.910Z,100527.59
2018-09-02T06:48:00.964Z,100526.45
2018-09-02T06:50:29.971Z,100521.23
2018-09-02T06:52:58.983Z,100531.70
2018-09-02T06:55:27.987Z,100528.67
2018-09-02T06:57:57.030Z,100537.45
2018-09-02T07:00:26.023Z,100541.11
2018-09-02T07:02:55.044Z,100532.48
2018-09-02T07:05:24.035Z,100533.88
2018-09-02T07:07:53.060Z,100536.27
2018-09-02T07:10:22.070Z,100533.64
2018-09-02T07:12:51.103Z,100534.77
2018-09-02T07:15:20.143Z,100532.92
2018-09-02T07:17:49.143Z,100535.38
2018-09-02T07:20:18.160Z,100531.06
2018-09-02T07:22:47.188Z,100535.14
2018-09-02T07:25:16.182Z,100533.45
2018-09-02T07:27:45.211Z,100537.66
2018-09-02T07:30:14.323Z,100538.55
2018-09-02T07:32:43.799Z,100542.56
2018-09-02T07:35:12.935Z,100542.26
2018-09-02T07:37:41.974Z,100548.55
2018-09-02T07:40:10.997Z,100555.37
2018-09-02T07:42:40.095Z,100551.34
2018-09-02T07:45:09.665Z,100546.84
2018-09-02T07:47:38.693Z,100547.33
2018-09-02T07:50:07.696Z,100545.32
2018-09-02T07:52:36.952Z,100540.94
2018-09-02T07:55:06.366Z,100541.81
2018-09-02T07:57:35.364Z,100545.75
2018-09-02T08:00:05.065Z,100542.20
2018-09-02T08:02:34.076Z,100536.84
2018-09-02T08:05:03.450Z,100540.78
2018-09-02T08:07:32.452Z,100546.67
2018-09-02T08:10:01.456Z,100548.23
2018-09-02T08:12:30.562Z,100551.03
2018-09-02T08:14:59.483Z,100552.18
2018-09-02T08:17:28.515Z,100554.67
2018-09-02T08:19:57.885Z,100551.73
2018-09-02T08:22:27.749Z,100554.63
2018-09-02T08:24:56.756Z,100549.48
2018-09-02T08:27:25.806Z,100551.11
2018-09-02T08:29:55.388Z,100551.03
2018-09-02T08:32:24.420Z,100546.42
2018-09-02T08:34:53.481Z,100546.50
2018-09-02T08:37:22.481Z,100545.87
2018-09-02T08:39:51.516Z,100538.43
2018-09-02T08:42:20.555Z,100546.85
2018-09-02T08:44:49.600Z,100540.06
2018-09-02T08:47:18.621Z,100539.67
2018-09-02T08:49:47.625Z,100544.33
2018-09-02T08:52:16.654Z,100538.43
2018-09-02T08:54:45.719Z,100533.47
2018-09-02T08:57:14.852Z,100539.40
2018-09-02T08:59:43.855Z,100540.76
2018-09-02T09:02:12.868Z,100539.85
2018-09-02T09:04:42.035Z,100540.76
2018-09-02T09:07:11.103Z,100541.55
2018-09-02T09:09:40.124Z,100540.20
2018-09-02T09:12:09.136Z,100536.28
2018-09-02T09:14:38.140Z,100540.70
2018-09-02T09:17:07.216Z,100542.64
2018-09-02T09:19:36.183Z,100542.23
2018-09-02T09:22:05.215Z,100544.70
2018-09-02T09:24:34.234Z,100550.99
2018-09-02T09:27:03.335Z,100539.26
2018-09-02T09:29:32.367Z,100542.20
2018-09-02T09:32:01.711Z,100543.08
2018-09-02T09:34:30.744Z,100539.77
2018-09-02T09:36:59.790Z,100541.96
2018-09-02T09:39:28.771Z,100540.02
2018-09-02T09:41:57.899Z,100535.16
2018-09-02T09:44:26.971Z,100530.97
2018-09-02T09:46:56.007Z,100540.65
2018-09-02T09:49:25.011Z,100532.48
2018-09-02T09:51:54.019Z,100532.14
2018-09-02T09:54:23.080Z,100528.92
2018-09-02T09:56:52.165Z,100533.23
2018-09-02T09:59:21.240Z,100531.93
2018-09-02T10:01:50.209Z,100532.19
2018-09-02T10:04:19.224Z,100531.70
2018-09-02T10:06:48.247Z,100528.83
2018-09-02T10:09:17.259Z,100534.91
2018-09-02T10:11:46.317Z,100525.41
2018-09-02T10:14:15.299Z,100530.89
2018-09-02T10:16:44.704Z,100521.17
2018-09-02T10:19:13.731Z,100525.41
2018-09-02T10:21:42.935Z,100528.13
2018-09-02T10:24:11.966Z,100525.03
2018-09-02T10:26:40.975Z,100515.70
2018-09-02T10:29:10.003Z,100520.48
2018-09-02T10:31:39.007Z,100509.51
2018-09-02T10:34:08.076Z,100512.46
2018-09-02T10:36:37.082Z,100507.27
2018-09-02T10:39:07.459Z,100513.86
2018-09-02T10:41:36.684Z,100506.66
2018-09-02T10:44:05.646Z,100498.03
2018-09-02T10:46:34.642Z,100492.56
2018-09-02T10:49:03.703Z,100494.73
2018-09-02T10:51:32.728Z,100491.65
2018-09-02T10:54:02.135Z,100488.52
2018-09-02T10:56:31.148Z,100490.85
2018-09-02T10:59:00.171Z,100479.78
2018-09-02T11:01:29.179Z,100478.37
2018-09-02T11:03:58.224Z,100483.50
2018-09-02T11:06:27.219Z,100485.11
2018-09-02T11:08:56.250Z,100474.19
2018-09-02T11:11:25.243Z,100476.03
2018-09-02T11:13:54.466Z,100474.98
2018-09-02T11:16:23.382Z,100483.06
2018-09-02T11:18:52.399Z,100476.72
2018-09-02T11:21:21.747Z,100474.08
2018-09-02T11:23:50.832Z,100471.80
2018-09-02T11:26:19.843Z,100471.84
2018-09-02T11:28:48.874Z,100466.86
2018-09-02T11:31:17.852Z,100472.14
2018-09-02T11:33:46.874Z,100471.48
2018-09-02T11:36:15.855Z,100464.08
2018-09-02T11:38:45.168Z,100454.20
2018-09-02T11:41:14.199Z,100453.39
2018-09-02T11:43:43.275Z,100454.72
2018-09-02T11:46:12.298Z,100454.72
2018-09-02T11:48:41.291Z,100444.31
2018-09-02T11:51:10.325Z,100445.48
2018-09-02T11:53:39.784Z,100448.98
2018-09-02T11:56:08.848Z,100451.13
2018-09-02T11:58:38.615Z,100452.92
2018-09-02T12:01:08.284Z,100441.67
2018-09-02T12:03:37.979Z,100438.55
2018-09-02T12:06:07.113Z,100441.02
2018-09-02T12:08:36.156Z,100441.84
2018-09-02T12:11:05.484Z,100440.04
2018-09-02T12:13:34.499Z,100431.95
2018-09-02T12:16:03.523Z,100430.94
2018-09-02T12:18:32.535Z,100433.45
2018-09-02T12:21:02.399Z,100428.81
2018-09-02T12:23:31.693Z,100426.02
2018-09-02T12:26:01.240Z,100422.86
2018-09-02T12:28:33.297Z,100424.67
2018-09-02T12:31:02.415Z,100421.34
2018-09-02T12:33:32.496Z,100418.21
2018-09-02T12:36:01.848Z,100412.09
2018-09-02T12:38:31.610Z,100413.72
2018-09-02T12:41:01.358Z,100413.03
2018-09-02T12:43:30.423Z,100416.70
2018-09-02T12:46:00.802Z,100418.36
2018-09-02T12:48:30.101Z,100426.14
2018-09-02T12:50:59.826Z,100419.41
2018-09-02T12:53:29.256Z,100424.83
2018-09-02T12:55:58.250Z,100415.91
2018-09-02T12:58:27.259Z,100415.75
2018-09-02T13:00:56.304Z,100417.07
2018-09-02T13:03:25.332Z,100400.59
2018-09-02T13:05:54.328Z,100399.70
2018-09-02T13:08:23.439Z,100403.47
2018-09-02T13:10:52.455Z,100393.18
2018-09-02T13:13:21.591Z,100400.05
2018-09-02T13:15:50.903Z,100391.78
2018-09-02T13:18:19.932Z,100388.16
2018-09-02T13:20:49.213Z,100395.47
2018-09-02T13:23:18.228Z,100389.22
2018-09-02T13:25:47.404Z,100380.98
2018-09-02T13:28:16.423Z,100378.63
2018-09-02T13:30:45.423Z,100375.70
2018-09-02T13:33:14.448Z,100377.02
2018-09-02T13:35:43.478Z,100380.84
2018-09-02T13:38:12.480Z,100382.66
2018-09-02T13:40:41.516Z,100390.44
2018-09-02T13:43:10.588Z,100389.19
2018-09-02T13:45:39.817Z,100385.67
2018-09-02T13:48:08.824Z,100385.86
2018-09-02T13:50:37.845Z,100384.04
2018-09-02T13:53:06.909Z,100388.80
2018-09-02T13:55:35.955Z,100385.35
2018-09-02T13:58:05.079Z,100388.98
2018-09-02T14:00:34.135Z,100384.04
2018-09-02T14:03:03.131Z,100382.53
2018-09-02T14:05:32.266Z,100385.70
2018-09-02T14:08:01.421Z,100381.23
2018-09-02T14:10:30.368Z,100373.97
2018-09-02T14:12:59.811Z,100374.30
2018-09-02T14:15:28.827Z,100374.46
2018-09-02T14:17:57.843Z,100373.30
2018-09-02T14:20:26.863Z,100372.32
2018-09-02T14:22:55.859Z,100368.53
2018-09-02T14:25:25.156Z,100369.18
2018-09-02T14:27:54.145Z,100369.14
2018-09-02T14:30:23.118Z,100366.17
2018-09-02T14:32:52.155Z,100369.16
2018-09-02T14:35:21.189Z,100363.88
2018-09-02T14:37:50.207Z,100360.89
2018-09-02T14:40:19.223Z,100367.16
2018-09-02T14:42:48.231Z,100360.89
2018-09-02T14:45:17.561Z,100361.54
2018-09-02T14:47:46.703Z,100363.84
2018-09-02T14:50:16.035Z,100364.02
2018-09-02T14:52:45.051Z,100365.09
2018-09-02T14:55:14.044Z,100363.13
2018-09-02T14:57:43.056Z,100357.83
2018-09-02T15:00:12.076Z,100355.87
2018-09-02T15:02:41.151Z,100349.92
2018-09-02T15:05:10.729Z,100354.53
2018-09-02T15:07:39.737Z,100355.22
2018-09-02T15:10:08.820Z,100360.17
2018-09-02T15:12:37.802Z,100353.72
2018-09-02T15:15:06.887Z,100353.87
2018-09-02T15:17:35.931Z,100361.82
2018-09-02T15:20:05.225Z,100362.94
2018-09-02T15:22:34.223Z,100361.78
2018-09-02T15:25:03.255Z,100359.33
2018-09-02T15:27:32.267Z,100353.56
2018-09-02T15:30:01.274Z,100356.22
2018-09-02T15:32:30.363Z,100362.31
2018-09-02T15:34:59.457Z,100356.20
2018-09-02T15:37:28.439Z,100359.67
2018-09-02T15:39:57.451Z,100357.42
2018-09-02T15:42:26.475Z,100359.09
2018-09-02T15:44:55.471Z,100354.29
2018-09-02T15:47:24.767Z,100355.11
2018-09-02T15:49:53.832Z,100350.01
2018-09-02T15:52:23.052Z,100352.30
2018-09-02T15:54:52.366Z,100347.63
2018-09-02T15:57:21.360Z,100346.96
2018-09-02T15:59:50.504Z,100339.86
2018-09-02T16:02:19.658Z,100342.31
2018-09-02T16:04:48.656Z,100346.62
2018-09-02T16:07:17.782Z,100346.27
2018-09-02T16:09:46.787Z,100345.42
2018-09-02T16:12:15.797Z,100341.14
2018-09-02T16:14:44.948Z,100342.78
2018-09-02T16:17:13.964Z,100338.14
2018-09-02T16:19:42.947Z,100340.62
2018-09-02T16:22:12.250Z,100340.10
2018-09-02T16:24:41.251Z,100344.19
2018-09-02T16:27:10.251Z,100342.20
2018-09-02T16:29:39.414Z,100343.53
2018-09-02T16:32:08.262Z,100348.13
2018-09-02T16:34:37.304Z,100342.55
2018-09-02T16:37:07.572Z,100349.13
2018-09-02T16:39:36.616Z,100342.13
2018-09-02T16:42:05.636Z,100346.51
2018-09-02T16:44:34.871Z,100346.02
2018-09-02T16:47:03.877Z,100342.06
2018-09-02T16:49:33.339Z,100343.06
2018-09-02T16:52:02.380Z,100342.27
2018-09-02T16:54:32.228Z,100338.42
2018-09-02T16:57:02.007Z,100340.72
2018-09-02T16:59:31.627Z,100335.48
2018-09-02T17:02:01.171Z,100343.19
2018-09-02T17:04:32.460Z,100341.17
2018-09-02T17:07:01.464Z,100337.37
2018-09-02T17:09:30.495Z,100339.31
2018-09-02T17:11:59.765Z,100324.84
2018-09-02T17:14:28.789Z,100319.44
2018-09-02T17:16:57.891Z,100321.61
2018-09-02T17:19:29.375Z,100320.55
2018-09-02T17:21:58.415Z,100325.77
2018-09-02T17:24:27.415Z,100315.42
2018-09-02T17:26:56.479Z,100315.19
2018-09-02T17:29:26.207Z,100310.61
2018-09-02T17:31:58.107Z,100309.61
2018-09-02T17:34:27.710Z,100313.53
2018-09-02T17:36:56.737Z,100311.61
2018-09-02T17:39:26.262Z,100303.36
2018-09-02T17:41:56.531Z,100313.91
2018-09-02T17:44:25.556Z,100317.48
2018-09-02T17:46:54.895Z,100312.18
2018-09-02T17:49:23.967Z,100314.47
2018-09-02T17:51:52.968Z,100308.68
2018-09-02T17:54:21.987Z,100308.85
2018-09-02T17:56:51.120Z,100309.65
2018-09-02T17:59:20.254Z,100302.23
2018-09-02T18:01:49.619Z,100302.55
2018-09-02T18:04:19.870Z,100301.37
2018-09-02T18:06:48.903Z,100303.31
2018-09-02T18:09:18.066Z,100302.61
2018-09-02T18:11:47.080Z,100303.75
2018-09-02T18:14:16.139Z,100307.70
2018-09-02T18:16:45.137Z,100313.59
2018-09-02T18:19:14.132Z,100314.52
2018-09-02T18:21:43.163Z,100318.11
2018-09-02T18:24:12.171Z,100315.31
2018-09-02T18:26:41.240Z,100318.51
2018-09-02T18:29:10.243Z,100319.52
2018-09-02T18:31:39.235Z,100321.10
2018-09-02T18:34:08.298Z,100325.22
2018-09-02T18:36:37.382Z,100334.57
2018-09-02T18:39:08.984Z,100337.20
2018-09-02T18:41:42.634Z,100331.94
2018-09-02T18:44:16.939Z,100326.02
2018-09-02T18:46:45.944Z,100329.61
2018-09-02T18:49:14.944Z,100323.20
2018-09-02T18:51:43.966Z,100325.63
2018-09-02T18:54:13.014Z,100335.32
2018-09-02T18:56:42.107Z,100333.52
2018-09-02T18:59:11.115Z,100336.11
2018-09-02T19:01:40.187Z,100325.04
2018-09-02T19:04:09.239Z,100326.28
2018-09-02T19:06:38.227Z,100326.72
2018-09-02T19:09:08.398Z,100330.00
2018-09-02T19:11:37.387Z,100333.42
2018-09-02T19:14:06.396Z,100337.19
2018-09-02T19:16:35.495Z,100336.40
2018-09-02T19:19:04.498Z,100331.39
2018-09-02T19:21:33.916Z,100322.97
2018-09-02T19:24:02.957Z,100332.66
2018-09-02T19:26:32.141Z,100339.19
2018-09-02T19:29:01.157Z,100337.69
2018-09-02T19:31:30.256Z,100333.08
2018-09-02T19:33:59.419Z,100333.70
2018-09-02T19:36:28.416Z,100334.05
2018-09-02T19:38:57.816Z,100333.56
2018-09-02T19:41:26.899Z,100328.83
2018-09-02T19:43:55.951Z,100327.56
2018-09-02T19:46:24.996Z,100329.27
2018-09-02T19:48:53.997Z,100316.05
2018-09-02T19:51:22.984Z,100315.27
2018-09-02T19:53:52.007Z,100315.56
2018-09-02T19:56:21.011Z,100311.41
2018-09-02T19:58:50.055Z,100309.55
2018-09-02T20:01:19.038Z,100305.66
2018-09-02T20:03:48.106Z,100304.64
2018-09-02T20:06:17.140Z,100308.54
2018-09-02T20:08:46.240Z,100303.62
2018-09-02T20:11:15.379Z,100307.22
2018-09-02T20:13:44.363Z,100301.30
2018-09-02T20:16:13.459Z,100294.72
2018-09-02T20:18:42.493Z,100286.65
2018-09-02T20:21:11.468Z,100288.94
2018-09-02T20:23:40.841Z,100285.17
2018-09-02T20:26:09.814Z,100283.00
2018-09-02T20:28:38.807Z,100288.58
2018-09-02T20:31:07.832Z,100287.44
2018-09-02T20:33:36.850Z,100288.39
2018-09-02T20:36:06.152Z,100285.47
2018-09-02T20:38:35.277Z,100293.24
2018-09-02T20:41:04.265Z,100288.81
2018-09-02T20:43:33.276Z,100288.39
2018-09-02T20:46:02.272Z,100281.77
2018-09-02T20:48:31.387Z,100279.69
2018-09-02T20:51:00.416Z,100269.05
2018-09-02T20:53:29.455Z,100274.54
2018-09-02T20:55:58.485Z,100276.44
2018-09-02T20:58:27.499Z,100274.20
2018-09-02T21:00:56.628Z,100279.62
2018-09-02T21:03:25.631Z,100283.92
2018-09-02T21:05:54.969Z,100287.98
2018-09-02T21:08:24.053Z,100283.38
2018-09-02T21:10:53.178Z,100280.75
2018-09-02T21:13:22.203Z,100279.22
2018-09-02T21:15:51.189Z,100279.51
2018-09-02T21:18:20.503Z,100272.86
2018-09-02T21:20:49.551Z,100285.41
2018-09-02T21:23:18.539Z,100284.03
2018-09-02T21:25:47.559Z,100275.42
2018-09-02T21:28:16.631Z,100280.57
2018-09-02T21:30:45.954Z,100281.28
2018-09-02T21:33:14.943Z,100283.97
2018-09-02T21:35:43.936Z,100286.27
2018-09-02T21:38:12.956Z,100286.50
2018-09-02T21:40:42.040Z,100287.63
2018-09-02T21:43:11.079Z,100287.08
2018-09-02T21:45:40.071Z,100283.97
2018-09-02T21:48:09.066Z,100285.25
2018-09-02T21:50:38.080Z,100277.77
2018-09-02T21:53:07.422Z,100279.72
2018-09-02T21:55:36.526Z,100280.77
2018-09-02T21:58:05.657Z,100263.45
2018-09-02T22:00:34.690Z,100277.16
2018-09-02T22:03:03.688Z,100274.63
2018-09-02T22:05:32.706Z,100275.94
2018-09-02T22:08:01.742Z,100271.64
2018-09-02T22:10:30.735Z,100275.58
2018-09-02T22:12:59.866Z,100266.20
2018-09-02T22:15:28.862Z,100266.97
2018-09-02T22:17:57.867Z,100264.12
2018-09-02T22:20:26.879Z,100257.20
2018-09-02T22:22:55.875Z,100263.83
2018-09-02T22:25:24.967Z,100260.92
2018-09-02T22:27:53.908Z,100250.45
2018-09-02T22:30:22.917Z,100259.29
2018-09-02T22:32:51.943Z,100256.44
2018-09-02T22:35:20.971Z,100257.05
2018-09-02T22:37:49.998Z,100248.48
2018-09-02T22:40:19.030Z,100252.13
2018-09-02T22:42:48.068Z,100243.17
2018-09-02T22:45:17.080Z,100249.00
2018-09-02T22:47:46.124Z,100248.17
2018-09-02T22:50:15.127Z,100242.98
2018-09-02T22:52:44.123Z,100246.92
2018-09-02T22:55:13.256Z,100239.98
2018-09-02T22:57:42.305Z,100227.52
2018-09-02T23:00:11.296Z,100228.16
2018-09-02T23:02:40.302Z,100229.54
2018-09-02T23:05:09.315Z,100219.11
2018-09-02T23:07:38.466Z,100215.17
2018-09-02T23:10:07.468Z,100212.70
2018-09-02T23:12:36.501Z,100208.83
2018-09-02T23:15:06.071Z,100209.91
2018-09-02T23:17:35.105Z,100203.34
2018-09-02T23:20:04.416Z,100194.77
2018-09-02T23:22:33.411Z,100182.95
2018-09-02T23:25:02.754Z,100180.61
2018-09-02T23:27:31.747Z,100167.11
2018-09-02T23:30:00.777Z,100161.27
2018-09-02T23:32:29.794Z,100142.72
2018-09-02T23:34:58.783Z,100160.14
2018-09-02T23:37:27.820Z,100154.51
2018-09-02T23:39:56.819Z,100141.52
2018-09-02T23:42:25.845Z,100132.14
2018-09-02T23:44:54.839Z,100128.20
2018-09-02T23:47:23.818Z,100132.03
2018-09-02T23:49:52.823Z,100124.75
2018-09-02T23:52:21.826Z,100118.53
2018-09-02T23:54:50.855Z,100117.06
2018-09-02T23:57:19.843Z,100103.91
2018-09-02T23:59:48.827Z,100099.27
